Illinois River (Oklahoma), Tahlequah (07196500)

StateOklahomaLatestGood (814 cfs)
RiverIllinois RiverRatingObservedEstimated
Updated2020-07-13 19:30 (28 minutes ago)Flood - The river is flooding. Obstacles can be treacherous or deadly. The river should be avoided at this stage for casual trips and definitely for the inexperienced. Trips should be attempted only with protective gear and equipment.Flood(none)3296
Discharge814 cfs (median: 294 cfs)High - The river is high and potentially dangerous, especially for the young and / or inexperienced. Normal stream obstacles are sometimes difficult to navigate. Extended distances can be attempted, but canoe travel may not be advisable.High(none)1679
Height5.6 feetGood - Conditions are ideal for a canoe or kayak. Boats typically will drag on fewer than one-quarter of riffles, if at all, and portages are unnecessary or rare. Normal float lengths can be attempted without a problem.Good300901
TrendFalling (falling over 24 hours)Low - River is low but can still be floated. Some riffles are okay but most come with significant dragging and might need a portage. Float lengths should be reduced to accommodate low flow, dragging, and portages.Low(none)587
USGSExternal icon USGS Site (External icon Google Maps)Poor - River is too low to float comfortably. Most or all riffles will drag or must be portaged and some obstacles (such as slick shelf rock) cause undue problems. Avoid the river at this stage for casual paddling trips.Poor(none)229

Trending Data

Plot Image

Trips for Illinois River (Oklahoma), Tahlequah (07196500)

DateStartEndDistanceConditionDischargeHeightFishingDetails

A total of 0 rows are displayed.

Condition Descriptions

Fishing Conditions

Fish Species

Notes

Classic Trip List

The classic River Trips application is still available for use. It is updated with the new system using a data retrofit. It is no longer maintained. The original River Trips application is no longer updated (as of 1 Dec 2016) but can be checked for errors or for the condition of the data before it was converted to the new system.

Gauge Data Table

ObservationHeightDischargeMaximum
Discharge
Minimum
Discharge
Mean
Discharge
P05P10P20P25P50
(Median)
P75P80P90P95
2020-07-13 19:30 5.60 814 22000 (1958) 25 (1954) 730 92 125 171 203 294 486 551 897 2690
2020-07-13 18:30 5.61 821 22000 (1958) 25 (1954) 730 92 125 171 203 294 486 551 897 2690
2020-07-13 17:30 5.62 827 22000 (1958) 25 (1954) 730 92 125 171 203 294 486 551 897 2690
2020-07-13 16:30 5.62 827 22000 (1958) 25 (1954) 730 92 125 171 203 294 486 551 897 2690
2020-07-13 15:30 5.63 834 22000 (1958) 25 (1954) 730 92 125 171 203 294 486 551 897 2690
2020-07-13 14:30 5.62 827 22000 (1958) 25 (1954) 730 92 125 171 203 294 486 551 897 2690
2020-07-13 13:30 5.63 834 22000 (1958) 25 (1954) 730 92 125 171 203 294 486 551 897 2690
2020-07-13 12:30 5.64 841 22000 (1958) 25 (1954) 730 92 125 171 203 294 486 551 897 2690
2020-07-13 11:30 5.64 841 22000 (1958) 25 (1954) 730 92 125 171 203 294 486 551 897 2690
2020-07-13 10:30 5.64 841 22000 (1958) 25 (1954) 730 92 125 171 203 294 486 551 897 2690
2020-07-13 09:30 5.65 848 22000 (1958) 25 (1954) 730 92 125 171 203 294 486 551 897 2690
2020-07-13 08:30 5.67 861 22000 (1958) 25 (1954) 730 92 125 171 203 294 486 551 897 2690
2020-07-13 07:30 5.66 855 22000 (1958) 25 (1954) 730 92 125 171 203 294 486 551 897 2690
2020-07-13 06:30 5.67 861 22000 (1958) 25 (1954) 730 92 125 171 203 294 486 551 897 2690
2020-07-13 05:30 5.68 868 22000 (1958) 25 (1954) 730 92 125 171 203 294 486 551 897 2690
2020-07-13 04:30 5.66 855 22000 (1958) 25 (1954) 730 92 125 171 203 294 486 551 897 2690
2020-07-13 03:30 5.68 868 22000 (1958) 25 (1954) 730 92 125 171 203 294 486 551 897 2690
2020-07-13 02:30 5.67 861 22000 (1958) 25 (1954) 730 92 125 171 203 294 486 551 897 2690
2020-07-13 01:30 5.68 868 22000 (1958) 25 (1954) 730 92 125 171 203 294 486 551 897 2690
2020-07-13 00:30 5.69 875 22000 (1958) 25 (1954) 730 92 125 171 203 294 486 551 897 2690
2020-07-12 23:30 5.69 875 5330 (2015) 27 (1954) 534 95 132 172 213 301 504 601 1060 2070
2020-07-12 22:30 5.70 882 5330 (2015) 27 (1954) 534 95 132 172 213 301 504 601 1060 2070
2020-07-12 21:30 5.70 882 5330 (2015) 27 (1954) 534 95 132 172 213 301 504 601 1060 2070
2020-07-12 20:30 5.72 896 5330 (2015) 27 (1954) 534 95 132 172 213 301 504 601 1060 2070
2020-07-12 19:30 5.71 889 5330 (2015) 27 (1954) 534 95 132 172 213 301 504 601 1060 2070
2020-07-12 18:30 5.71 889 5330 (2015) 27 (1954) 534 95 132 172 213 301 504 601 1060 2070
2020-07-12 17:30 5.72 896 5330 (2015) 27 (1954) 534 95 132 172 213 301 504 601 1060 2070
2020-07-12 16:30 5.73 903 5330 (2015) 27 (1954) 534 95 132 172 213 301 504 601 1060 2070
2020-07-12 15:30 5.73 903 5330 (2015) 27 (1954) 534 95 132 172 213 301 504 601 1060 2070
2020-07-12 14:30 5.75 918 5330 (2015) 27 (1954) 534 95 132 172 213 301 504 601 1060 2070
2020-07-12 13:30 5.75 918 5330 (2015) 27 (1954) 534 95 132 172 213 301 504 601 1060 2070
2020-07-12 12:30 5.76 925 5330 (2015) 27 (1954) 534 95 132 172 213 301 504 601 1060 2070
2020-07-12 11:30 5.78 939 5330 (2015) 27 (1954) 534 95 132 172 213 301 504 601 1060 2070
2020-07-12 10:30 5.78 939 5330 (2015) 27 (1954) 534 95 132 172 213 301 504 601 1060 2070
2020-07-12 09:30 5.81 962 5330 (2015) 27 (1954) 534 95 132 172 213 301 504 601 1060 2070
2020-07-12 08:30 5.81 962 5330 (2015) 27 (1954) 534 95 132 172 213 301 504 601 1060 2070
2020-07-12 07:30 5.83 976 5330 (2015) 27 (1954) 534 95 132 172 213 301 504 601 1060 2070
2020-07-12 06:30 5.84 984 5330 (2015) 27 (1954) 534 95 132 172 213 301 504 601 1060 2070
2020-07-12 05:30 5.87 1010 5330 (2015) 27 (1954) 534 95 132 172 213 301 504 601 1060 2070
2020-07-12 04:30 5.89 1020 5330 (2015) 27 (1954) 534 95 132 172 213 301 504 601 1060 2070
2020-07-12 03:30 5.90 1030 5330 (2015) 27 (1954) 534 95 132 172 213 301 504 601 1060 2070
2020-07-12 02:30 5.91 1040 5330 (2015) 27 (1954) 534 95 132 172 213 301 504 601 1060 2070
2020-07-12 00:30 5.91 1040 5330 (2015) 27 (1954) 534 95 132 172 213 301 504 601 1060 2070
2020-07-11 23:30 5.92 1050 10400 (2015) 28 (1954) 594 98 128 176 207 319 527 632 1020 1790
2020-07-11 22:30 5.93 1050 10400 (2015) 28 (1954) 594 98 128 176 207 319 527 632 1020 1790
2020-07-11 21:30 5.87 1010 10400 (2015) 28 (1954) 594 98 128 176 207 319 527 632 1020 1790
2020-07-11 20:30 5.83 976 10400 (2015) 28 (1954) 594 98 128 176 207 319 527 632 1020 1790
2020-07-11 19:30 5.81 962 10400 (2015) 28 (1954) 594 98 128 176 207 319 527 632 1020 1790
2020-07-11 18:30 5.83 976 10400 (2015) 28 (1954) 594 98 128 176 207 319 527 632 1020 1790
2020-07-11 17:30 5.85 991 10400 (2015) 28 (1954) 594 98 128 176 207 319 527 632 1020 1790
2020-07-11 16:30 5.85 991 10400 (2015) 28 (1954) 594 98 128 176 207 319 527 632 1020 1790
2020-07-11 15:30 5.87 1010 10400 (2015) 28 (1954) 594 98 128 176 207 319 527 632 1020 1790
2020-07-11 14:30 5.87 1010 10400 (2015) 28 (1954) 594 98 128 176 207 319 527 632 1020 1790
2020-07-11 13:30 5.89 1020 10400 (2015) 28 (1954) 594 98 128 176 207 319 527 632 1020 1790
2020-07-11 12:30 5.90 1030 10400 (2015) 28 (1954) 594 98 128 176 207 319 527 632 1020 1790
2020-07-11 11:30 5.90 1030 10400 (2015) 28 (1954) 594 98 128 176 207 319 527 632 1020 1790
2020-07-11 10:30 5.91 1040 10400 (2015) 28 (1954) 594 98 128 176 207 319 527 632 1020 1790
2020-07-11 09:30 5.91 1040 10400 (2015) 28 (1954) 594 98 128 176 207 319 527 632 1020 1790
2020-07-11 08:30 5.90 1030 10400 (2015) 28 (1954) 594 98 128 176 207 319 527 632 1020 1790
2020-07-11 07:30 5.90 1030 10400 (2015) 28 (1954) 594 98 128 176 207 319 527 632 1020 1790
2020-07-11 06:30 5.89 1020 10400 (2015) 28 (1954) 594 98 128 176 207 319 527 632 1020 1790
2020-07-11 05:30 5.90 1030 10400 (2015) 28 (1954) 594 98 128 176 207 319 527 632 1020 1790
2020-07-11 04:30 5.88 1010 10400 (2015) 28 (1954) 594 98 128 176 207 319 527 632 1020 1790
2020-07-11 03:30 5.87 1010 10400 (2015) 28 (1954) 594 98 128 176 207 319 527 632 1020 1790
2020-07-11 02:30 5.85 991 10400 (2015) 28 (1954) 594 98 128 176 207 319 527 632 1020 1790
2020-07-11 01:30 5.86 999 10400 (2015) 28 (1954) 594 98 128 176 207 319 527 632 1020 1790
2020-07-11 00:30 5.86 999 10400 (2015) 28 (1954) 594 98 128 176 207 319 527 632 1020 1790
2020-07-10 23:30 5.84 984 12000 (2015) 31 (1954) 632 101 128 189 207 340 575 621 928 2180
2020-07-10 22:30 5.84 984 12000 (2015) 31 (1954) 632 101 128 189 207 340 575 621 928 2180
2020-07-10 21:30 5.82 969 12000 (2015) 31 (1954) 632 101 128 189 207 340 575 621 928 2180
2020-07-10 20:30 5.81 962 12000 (2015) 31 (1954) 632 101 128 189 207 340 575 621 928 2180
2020-07-10 19:30 5.77 932 12000 (2015) 31 (1954) 632 101 128 189 207 340 575 621 928 2180
2020-07-10 18:30 5.78 939 12000 (2015) 31 (1954) 632 101 128 189 207 340 575 621 928 2180
2020-07-10 17:30 5.75 918 12000 (2015) 31 (1954) 632 101 128 189 207 340 575 621 928 2180
2020-07-10 16:30 5.74 911 12000 (2015) 31 (1954) 632 101 128 189 207 340 575 621 928 2180
2020-07-10 15:30 5.75 918 12000 (2015) 31 (1954) 632 101 128 189 207 340 575 621 928 2180
2020-07-10 14:30 5.73 903 12000 (2015) 31 (1954) 632 101 128 189 207 340 575 621 928 2180
2020-07-10 13:30 5.71 889 12000 (2015) 31 (1954) 632 101 128 189 207 340 575 621 928 2180
2020-07-10 12:30 5.71 889 12000 (2015) 31 (1954) 632 101 128 189 207 340 575 621 928 2180
2020-07-10 11:30 5.69 875 12000 (2015) 31 (1954) 632 101 128 189 207 340 575 621 928 2180
2020-07-10 10:30 5.69 875 12000 (2015) 31 (1954) 632 101 128 189 207 340 575 621 928 2180
2020-07-10 09:30 5.67 861 12000 (2015) 31 (1954) 632 101 128 189 207 340 575 621 928 2180
2020-07-10 08:30 5.68 868 12000 (2015) 31 (1954) 632 101 128 189 207 340 575 621 928 2180
2020-07-10 07:30 5.67 861 12000 (2015) 31 (1954) 632 101 128 189 207 340 575 621 928 2180
2020-07-10 06:30 5.66 855 12000 (2015) 31 (1954) 632 101 128 189 207 340 575 621 928 2180
2020-07-10 05:30 5.65 848 12000 (2015) 31 (1954) 632 101 128 189 207 340 575 621 928 2180
2020-07-10 04:30 5.64 841 12000 (2015) 31 (1954) 632 101 128 189 207 340 575 621 928 2180
2020-07-10 03:30 5.63 834 12000 (2015) 31 (1954) 632 101 128 189 207 340 575 621 928 2180
2020-07-10 02:30 5.62 827 12000 (2015) 31 (1954) 632 101 128 189 207 340 575 621 928 2180
2020-07-10 01:30 5.61 821 12000 (2015) 31 (1954) 632 101 128 189 207 340 575 621 928 2180
2020-07-10 00:30 5.60 814 12000 (2015) 31 (1954) 632 101 128 189 207 340 575 621 928 2180
2020-07-09 23:30 5.60 814 8310 (2015) 33 (1954) 564 101 132 194 216 347 556 670 1080 1410
2020-07-09 22:30 5.60 814 8310 (2015) 33 (1954) 564 101 132 194 216 347 556 670 1080 1410
2020-07-09 21:30 5.60 814 8310 (2015) 33 (1954) 564 101 132 194 216 347 556 670 1080 1410
2020-07-09 20:30 5.60 814 8310 (2015) 33 (1954) 564 101 132 194 216 347 556 670 1080 1410
2020-07-09 19:30 5.62 827 8310 (2015) 33 (1954) 564 101 132 194 216 347 556 670 1080 1410
2020-07-09 18:30 5.62 827 8310 (2015) 33 (1954) 564 101 132 194 216 347 556 670 1080 1410
2020-07-09 17:30 5.63 834 8310 (2015) 33 (1954) 564 101 132 194 216 347 556 670 1080 1410
2020-07-09 16:30 5.64 841 8310 (2015) 33 (1954) 564 101 132 194 216 347 556 670 1080 1410
2020-07-09 15:30 5.65 848 8310 (2015) 33 (1954) 564 101 132 194 216 347 556 670 1080 1410
2020-07-09 14:30 5.65 848 8310 (2015) 33 (1954) 564 101 132 194 216 347 556 670 1080 1410
2020-07-09 13:30 5.68 868 8310 (2015) 33 (1954) 564 101 132 194 216 347 556 670 1080 1410
2020-07-09 12:30 5.67 861 8310 (2015) 33 (1954) 564 101 132 194 216 347 556 670 1080 1410
2020-07-09 11:30 5.69 875 8310 (2015) 33 (1954) 564 101 132 194 216 347 556 670 1080 1410
2020-07-09 10:30 5.64 841 8310 (2015) 33 (1954) 564 101 132 194 216 347 556 670 1080 1410
2020-07-09 09:30 5.51 756 8310 (2015) 33 (1954) 564 101 132 194 216 347 556 670 1080 1410
2020-07-09 08:30 5.54 775 8310 (2015) 33 (1954) 564 101 132 194 216 347 556 670 1080 1410
2020-07-09 07:30 5.54 775 8310 (2015) 33 (1954) 564 101 132 194 216 347 556 670 1080 1410
2020-07-09 06:30 5.56 788 8310 (2015) 33 (1954) 564 101 132 194 216 347 556 670 1080 1410
2020-07-09 05:30 5.56 788 8310 (2015) 33 (1954) 564 101 132 194 216 347 556 670 1080 1410
2020-07-09 04:30 5.56 788 8310 (2015) 33 (1954) 564 101 132 194 216 347 556 670 1080 1410
2020-07-09 03:30 5.56 788 8310 (2015) 33 (1954) 564 101 132 194 216 347 556 670 1080 1410
2020-07-09 02:30 5.56 788 8310 (2015) 33 (1954) 564 101 132 194 216 347 556 670 1080 1410
2020-07-09 01:30 5.57 794 8310 (2015) 33 (1954) 564 101 132 194 216 347 556 670 1080 1410
2020-07-08 23:30 5.58 801 4500 (2015) 36 (1954) 520 105 136 204 228 361 610 745 1010 1540
2020-07-08 22:30 5.58 801 4500 (2015) 36 (1954) 520 105 136 204 228 361 610 745 1010 1540
2020-07-08 21:30 5.58 801 4500 (2015) 36 (1954) 520 105 136 204 228 361 610 745 1010 1540
2020-07-08 20:30 5.58 801 4500 (2015) 36 (1954) 520 105 136 204 228 361 610 745 1010 1540
2020-07-08 19:30 5.58 801 4500 (2015) 36 (1954) 520 105 136 204 228 361 610 745 1010 1540
2020-07-08 18:30 5.59 807 4500 (2015) 36 (1954) 520 105 136 204 228 361 610 745 1010 1540
2020-07-08 17:30 5.59 807 4500 (2015) 36 (1954) 520 105 136 204 228 361 610 745 1010 1540
2020-07-08 16:30 5.59 807 4500 (2015) 36 (1954) 520 105 136 204 228 361 610 745 1010 1540
2020-07-08 15:30 5.59 807 4500 (2015) 36 (1954) 520 105 136 204 228 361 610 745 1010 1540
2020-07-08 14:30 5.60 814 4500 (2015) 36 (1954) 520 105 136 204 228 361 610 745 1010 1540
2020-07-08 13:30 5.60 814 4500 (2015) 36 (1954) 520 105 136 204 228 361 610 745 1010 1540
2020-07-08 12:30 5.60 814 4500 (2015) 36 (1954) 520 105 136 204 228 361 610 745 1010 1540
2020-07-08 11:30 5.59 807 4500 (2015) 36 (1954) 520 105 136 204 228 361 610 745 1010 1540
2020-07-08 10:30 5.61 821 4500 (2015) 36 (1954) 520 105 136 204 228 361 610 745 1010 1540
2020-07-08 09:30 5.62 827 4500 (2015) 36 (1954) 520 105 136 204 228 361 610 745 1010 1540
2020-07-08 08:30 5.62 827 4500 (2015) 36 (1954) 520 105 136 204 228 361 610 745 1010 1540
2020-07-08 07:30 5.62 827 4500 (2015) 36 (1954) 520 105 136 204 228 361 610 745 1010 1540
2020-07-08 06:30 5.63 834 4500 (2015) 36 (1954) 520 105 136 204 228 361 610 745 1010 1540
2020-07-08 05:30 5.64 841 4500 (2015) 36 (1954) 520 105 136 204 228 361 610 745 1010 1540
2020-07-08 04:30 5.64 841 4500 (2015) 36 (1954) 520 105 136 204 228 361 610 745 1010 1540
2020-07-08 03:30 5.64 841 4500 (2015) 36 (1954) 520 105 136 204 228 361 610 745 1010 1540
2020-07-08 02:30 5.65 848 4500 (2015) 36 (1954) 520 105 136 204 228 361 610 745 1010 1540
2020-07-08 01:30 5.64 841 4500 (2015) 36 (1954) 520 105 136 204 228 361 610 745 1010 1540
2020-07-08 00:30 5.65 848 4500 (2015) 36 (1954) 520 105 136 204 228 361 610 745 1010 1540
2020-07-07 23:30 5.65 848 2260 (2004) 38 (1954) 510 111 137 208 225 379 626 727 1130 1640
2020-07-07 22:30 5.66 855 2260 (2004) 38 (1954) 510 111 137 208 225 379 626 727 1130 1640
2020-07-07 21:30 5.66 855 2260 (2004) 38 (1954) 510 111 137 208 225 379 626 727 1130 1640
2020-07-07 20:30 5.65 848 2260 (2004) 38 (1954) 510 111 137 208 225 379 626 727 1130 1640
2020-07-07 19:30 5.66 855 2260 (2004) 38 (1954) 510 111 137 208 225 379 626 727 1130 1640
2020-07-07 18:30 5.68 868 2260 (2004) 38 (1954) 510 111 137 208 225 379 626 727 1130 1640
2020-07-07 17:30 5.67 861 2260 (2004) 38 (1954) 510 111 137 208 225 379 626 727 1130 1640
2020-07-07 16:30 5.66 855 2260 (2004) 38 (1954) 510 111 137 208 225 379 626 727 1130 1640
2020-07-07 15:30 5.68 868 2260 (2004) 38 (1954) 510 111 137 208 225 379 626 727 1130 1640
2020-07-07 14:30 5.68 868 2260 (2004) 38 (1954) 510 111 137 208 225 379 626 727 1130 1640
2020-07-07 13:30 5.69 875 2260 (2004) 38 (1954) 510 111 137 208 225 379 626 727 1130 1640
2020-07-07 12:30 5.69 875 2260 (2004) 38 (1954) 510 111 137 208 225 379 626 727 1130 1640
2020-07-07 11:30 5.70 882 2260 (2004) 38 (1954) 510 111 137 208 225 379 626 727 1130 1640
2020-07-07 10:30 5.69 875 2260 (2004) 38 (1954) 510 111 137 208 225 379 626 727 1130 1640
2020-07-07 09:30 5.69 875 2260 (2004) 38 (1954) 510 111 137 208 225 379 626 727 1130 1640
2020-07-07 08:30 5.69 875 2260 (2004) 38 (1954) 510 111 137 208 225 379 626 727 1130 1640
2020-07-07 07:30 5.69 875 2260 (2004) 38 (1954) 510 111 137 208 225 379 626 727 1130 1640
2020-07-07 06:30 5.70 882 2260 (2004) 38 (1954) 510 111 137 208 225 379 626 727 1130 1640
2020-07-07 05:30 5.71 889 2260 (2004) 38 (1954) 510 111 137 208 225 379 626 727 1130 1640
2020-07-07 04:30 5.70 882 2260 (2004) 38 (1954) 510 111 137 208 225 379 626 727 1130 1640
2020-07-07 03:30 5.71 889 2260 (2004) 38 (1954) 510 111 137 208 225 379 626 727 1130 1640
2020-07-07 02:30 5.72 896 2260 (2004) 38 (1954) 510 111 137 208 225 379 626 727 1130 1640
2020-07-07 00:30 5.73 903 2260 (2004) 38 (1954) 510 111 137 208 225 379 626 727 1130 1640
2020-07-06 23:30 5.73 903 3160 (2004) 39 (1954) 558 112 137 210 235 396 678 814 1390 1840
2020-07-06 22:30 5.73 903 3160 (2004) 39 (1954) 558 112 137 210 235 396 678 814 1390 1840
2020-07-06 21:30 5.74 911 3160 (2004) 39 (1954) 558 112 137 210 235 396 678 814 1390 1840
2020-07-06 20:30 5.73 903 3160 (2004) 39 (1954) 558 112 137 210 235 396 678 814 1390 1840
2020-07-06 19:30 5.74 911 3160 (2004) 39 (1954) 558 112 137 210 235 396 678 814 1390 1840
2020-07-06 18:30 5.76 925 3160 (2004) 39 (1954) 558 112 137 210 235 396 678 814 1390 1840
2020-07-06 17:30 5.76 925 3160 (2004) 39 (1954) 558 112 137 210 235 396 678 814 1390 1840
2020-07-06 16:30 5.77 932 3160 (2004) 39 (1954) 558 112 137 210 235 396 678 814 1390 1840
2020-07-06 15:30 5.78 939 3160 (2004) 39 (1954) 558 112 137 210 235 396 678 814 1390 1840
2020-07-06 14:30 5.75 918 3160 (2004) 39 (1954) 558 112 137 210 235 396 678 814 1390 1840
2020-07-06 06:05 5.74 907 3160 (2004) 39 (1954) 558 112 137 210 235 396 678 814 1390 1840

A total of 172 rows are displayed for years 1936 through 2018.